Time;durP1;ratioP1;P1;durP2;ratioP2;P2;SDS_P1;SDS_P2;PMS_P1;PMS_P2;Temp;Humidity;BMP_temperature;BMP_pressure;BME280_temperature;BME280_humidity;BME280_pressure;Samples;Min_cycle;Max_cycle;Signal;HPM_P1;HPM_P2
2022/07/04 00:00:21;;;;;;;2.42;1.00;;;;;;;13.17;100.00;101903.47;5040603;28;20033;-69
2022/07/04 00:02:47;;;;;;;2.97;1.40;;;;;;;13.18;99.83;101904.31;5036426;28;20017;-69
2022/07/04 00:05:13;;;;;;;1.65;1.08;;;;;;;13.06;99.72;101890.34;5037280;28;20052;-69
2022/07/04 00:07:47;;;;;;;2.25;0.95;;;;;;;13.06;99.68;101903.59;5036256;28;20489;-69
2022/07/04 00:10:15;;;;;;;1.98;1.20;;;;;;;12.98;100.00;101895.53;5039074;28;20025;-69
2022/07/04 00:12:41;;;;;;;1.75;1.25;;;;;;;12.94;100.00;101880.88;5037643;28;20221;-69
2022/07/04 00:15:08;;;;;;;3.22;0.80;;;;;;;13.00;99.83;101895.38;5036561;28;20071;-69
2022/07/04 00:17:33;;;;;;;1.98;1.08;;;;;;;13.01;100.00;101903.19;5035229;28;20067;-69
2022/07/04 00:20:00;;;;;;;1.67;1.00;;;;;;;13.04;100.00;101902.91;5032297;28;20053;-69
2022/07/04 00:22:25;;;;;;;1.33;1.10;;;;;;;13.05;99.88;101903.75;5036635;28;20033;-69
2022/07/04 00:24:51;;;;;;;1.10;0.95;;;;;;;13.06;100.00;101908.91;5036045;28;20037;-69
2022/07/04 00:27:16;;;;;;;0.90;0.70;;;;;;;13.04;100.00;101905.53;5034804;28;20024;-69
2022/07/04 00:29:41;;;;;;;1.50;1.20;;;;;;;13.00;100.00;101904.19;5034643;28;20035;-69
2022/07/04 00:32:07;;;;;;;1.67;1.20;;;;;;;13.00;100.00;101898.03;5034133;28;20389;-69
2022/07/04 00:34:33;;;;;;;1.95;1.20;;;;;;;12.97;100.00;101893.84;5032592;28;20025;-69
2022/07/04 00:36:58;;;;;;;3.28;1.85;;;;;;;12.95;100.00;101898.44;5037255;28;20075;-69
2022/07/04 00:39:24;;;;;;;2.97;1.08;;;;;;;12.96;100.00;101897.47;5036112;28;20029;-69
2022/07/04 00:41:49;;;;;;;3.67;0.90;;;;;;;12.89;100.00;101902.50;5035796;28;20122;-69
2022/07/04 00:44:15;;;;;;;2.42;1.42;;;;;;;12.82;100.00;101898.72;5038555;28;20488;-69
2022/07/04 00:46:42;;;;;;;2.00;1.40;;;;;;;12.81;100.00;101890.94;5037177;28;20041;-69
2022/07/04 00:49:09;;;;;;;1.13;0.93;;;;;;;12.84;100.00;101891.47;5035791;28;20618;-69
2022/07/04 00:51:37;;;;;;;2.10;1.38;;;;;;;12.73;100.00;101865.94;5035528;28;20047;-69
2022/07/04 00:54:02;;;;;;;1.45;1.08;;;;;;;12.86;100.00;101889.53;5035443;28;20034;-69
2022/07/04 00:56:29;;;;;;;1.55;1.13;;;;;;;12.86;100.00;101892.16;5035878;28;20017;-69
2022/07/04 00:58:54;;;;;;;1.00;0.80;;;;;;;12.77;100.00;101879.75;5041410;28;20080;-69
2022/07/04 01:01:20;;;;;;;1.55;0.90;;;;;;;12.85;100.00;101889.69;5018167;28;20037;-69
2022/07/04 01:03:46;;;;;;;1.35;0.73;;;;;;;12.89;100.00;101897.22;5038518;28;20057;-69
2022/07/04 01:06:13;;;;;;;2.03;1.17;;;;;;;12.90;100.00;101888.28;5038301;28;20388;-69
2022/07/04 01:08:41;;;;;;;2.92;1.10;;;;;;;12.88;99.21;101884.91;5035127;28;20048;-69
2022/07/04 01:11:07;;;;;;;5.78;1.10;;;;;;;12.83;99.29;101881.03;5039459;28;20469;-69
2022/07/04 01:13:33;;;;;;;1.67;1.27;;;;;;;12.73;100.00;101881.84;5037842;28;20031;-70
2022/07/04 01:15:59;;;;;;;1.98;1.10;;;;;;;12.66;100.00;101890.50;5038104;28;20116;-69
2022/07/04 01:18:25;;;;;;;1.60;1.40;;;;;;;12.68;100.00;101889.38;5036022;28;20385;-69
2022/07/04 01:20:50;;;;;;;2.22;1.15;;;;;;;12.69;100.00;101888.41;5032762;28;20029;-68
2022/07/04 01:23:16;;;;;;;3.50;1.17;;;;;;;12.64;100.00;101882.69;5030453;28;20477;-69
2022/07/04 01:25:42;;;;;;;1.60;1.00;;;;;;;12.56;100.00;101885.19;5036354;28;20025;-69
2022/07/04 01:28:08;;;;;;;1.25;1.13;;;;;;;12.57;100.00;101891.34;5041660;28;20029;-70
2022/07/04 01:30:36;;;;;;;4.82;1.65;;;;;;;12.38;100.00;101860.38;5042471;28;20037;-69
2022/07/04 01:33:02;;;;;;;1.80;0.80;;;;;;;12.43;100.00;101879.31;5038559;28;20539;-69
2022/07/04 01:35:27;;;;;;;3.75;1.50;;;;;;;12.30;100.00;101869.84;5033374;28;20026;-69
2022/07/04 01:37:53;;;;;;;1.20;1.10;;;;;;;12.18;100.00;101862.13;5040971;28;20027;-69
2022/07/04 01:40:18;;;;;;;2.42;0.75;;;;;;;12.10;100.00;101870.72;5038422;28;20067;-69
2022/07/04 01:42:44;;;;;;;3.40;1.40;;;;;;;11.85;100.00;101849.06;5035104;28;20539;-69
2022/07/04 01:45:11;;;;;;;13.52;1.98;;;;;;;11.89;100.00;101871.66;5040262;28;20037;-68
2022/07/04 01:47:37;;;;;;;2.95;1.42;;;;;;;11.76;100.00;101867.50;5039128;28;20029;-69
2022/07/04 01:50:04;;;;;;;2.72;1.58;;;;;;;11.79;100.00;101877.84;5037877;28;20053;-69
2022/07/04 01:52:29;;;;;;;2.17;1.48;;;;;;;11.79;100.00;101873.38;5043909;28;20048;-69
2022/07/04 01:54:55;;;;;;;4.68;1.30;;;;;;;11.80;100.00;101864.50;5036162;28;20021;-68
2022/07/04 01:57:20;;;;;;;1.80;1.60;;;;;;;11.81;100.00;101874.09;5042773;28;20295;-68
2022/07/04 02:02:29;;;;;;;1.85;1.10;;;;;;;11.84;100.00;101875.63;5042856;28;20040;-70
2022/07/04 02:04:54;;;;;;;1.45;1.23;;;;;;;11.84;100.00;101868.53;5036725;28;20025;-69
2022/07/04 02:07:20;;;;;;;6.65;1.15;;;;;;;11.84;100.00;101876.47;5040334;28;20041;-69
2022/07/04 02:09:46;;;;;;;0.70;0.55;;;;;;;11.82;100.00;101870.47;5038494;28;20037;-69
2022/07/04 02:14:55;;;;;;;1.63;1.30;;;;;;;11.65;100.00;101865.78;5040102;28;20076;-69
2022/07/04 02:17:21;;;;;;;0.95;0.85;;;;;;;11.57;100.00;101857.69;5044862;28;20049;-69
2022/07/04 02:19:47;;;;;;;1.60;0.90;;;;;;;11.65;100.00;101863.16;5035183;28;20023;-69
2022/07/04 02:22:13;;;;;;;1.95;1.35;;;;;;;11.68;100.00;101862.91;5032854;28;20029;-69
2022/07/04 02:24:39;;;;;;;4.57;1.85;;;;;;;11.72;100.00;101866.97;5037461;28;20088;-68
2022/07/04 02:27:04;;;;;;;1.45;1.08;;;;;;;11.63;100.00;101843.97;5039240;28;20029;-68
2022/07/04 02:29:30;;;;;;;1.00;0.90;;;;;;;11.74;100.00;101863.19;5038288;28;20029;-68
2022/07/04 02:31:55;;;;;;;4.22;1.95;;;;;;;11.68;100.00;101857.63;5019006;28;20076;-68
2022/07/04 02:34:20;;;;;;;1.58;0.98;;;;;;;11.59;100.00;101853.94;5035769;28;20064;-68
2022/07/04 02:36:46;;;;;;;2.97;1.08;;;;;;;11.56;100.00;101853.38;5041580;28;20451;-69
2022/07/04 02:39:11;;;;;;;1.95;1.20;;;;;;;11.56;100.00;101862.13;5042158;28;20040;-70
2022/07/04 02:41:36;;;;;;;1.67;1.33;;;;;;;11.60;100.00;101852.97;5030819;28;20063;-69
2022/07/04 02:44:02;;;;;;;4.45;1.30;;;;;;;11.52;100.00;101853.66;5041841;28;20029;-69
2022/07/04 02:46:28;;;;;;;3.00;1.55;;;;;;;11.59;100.00;101853.94;5038947;28;20033;-69
2022/07/04 02:48:53;;;;;;;1.45;1.05;;;;;;;11.58;100.00;101844.31;5040925;28;20371;-69
2022/07/04 02:51:18;;;;;;;1.58;1.05;;;;;;;11.51;100.00;101846.66;5041919;28;20147;-69
2022/07/04 02:53:44;;;;;;;1.30;1.20;;;;;;;11.51;100.00;101851.94;5039082;28;20025;-69
2022/07/04 02:56:09;;;;;;;4.97;1.52;;;;;;;11.52;100.00;101853.66;5037214;28;20485;-69
2022/07/04 02:58:34;;;;;;;1.20;0.70;;;;;;;11.55;100.00;101854.34;5036718;28;20017;-69
2022/07/04 03:01:00;;;;;;;3.30;1.40;;;;;;;11.55;100.00;101849.91;5041790;28;20022;-69
2022/07/04 03:03:26;;;;;;;3.53;1.65;;;;;;;11.57;100.00;101850.59;5037986;28;20065;-69
2022/07/04 03:05:52;;;;;;;2.40;1.58;;;;;;;11.57;100.00;101849.78;5035195;28;20401;-69
2022/07/04 03:08:18;;;;;;;2.13;1.25;;;;;;;11.60;100.00;101855.63;5037271;28;20025;-69
2022/07/04 03:10:43;;;;;;;3.28;1.98;;;;;;;11.62;100.00;101845.75;5035836;28;20461;-69
2022/07/04 03:13:09;;;;;;;1.25;1.05;;;;;;;11.63;100.00;101854.53;5037461;28;20025;-69
2022/07/04 03:15:34;;;;;;;3.50;1.48;;;;;;;11.65;100.00;101852.56;5032337;28;20033;-69
2022/07/04 03:17:59;;;;;;;3.17;1.83;;;;;;;11.61;100.00;101841.44;5040508;28;20085;-69
2022/07/04 03:20:25;;;;;;;2.33;1.95;;;;;;;11.68;100.00;101855.78;5045686;28;20032;-69
2022/07/04 03:22:51;;;;;;;1.95;1.45;;;;;;;11.73;100.00;101864.16;5042420;28;20025;-69
2022/07/04 03:25:17;;;;;;;1.48;1.10;;;;;;;11.77;100.00;101855.97;5041191;28;20552;-69
2022/07/04 03:27:42;;;;;;;2.53;1.08;;;;;;;11.76;100.00;101857.78;5036570;28;20021;-69
2022/07/04 03:30:08;;;;;;;2.58;1.70;;;;;;;11.84;100.00;101863.22;5038995;28;20037;-69
2022/07/04 03:32:33;;;;;;;1.77;1.35;;;;;;;11.85;100.00;101858.81;5017846;28;20598;-69
2022/07/04 03:34:58;;;;;;;1.77;1.45;;;;;;;11.87;100.00;101862.16;5038085;28;20540;-69
2022/07/04 03:37:24;;;;;;;2.30;1.48;;;;;;;11.89;100.00;101866.38;5040881;28;20237;-69
2022/07/04 03:39:49;;;;;;;2.65;1.45;;;;;;;11.92;100.00;101867.91;5036135;28;20021;-69
2022/07/04 03:42:15;;;;;;;1.73;1.30;;;;;;;11.95;100.00;101870.25;5038304;28;20017;-69
2022/07/04 03:44:40;;;;;;;2.53;1.70;;;;;;;11.96;100.00;101865.84;5034767;28;20028;-69
2022/07/04 03:47:05;;;;;;;3.03;1.55;;;;;;;11.96;100.00;101871.13;5046531;28;20037;-69
2022/07/04 03:49:31;;;;;;;2.42;1.73;;;;;;;11.94;100.00;101868.59;5040927;28;20121;-69
2022/07/04 03:51:56;;;;;;;2.58;1.33;;;;;;;11.98;100.00;101863.91;5038994;28;20032;-68
2022/07/04 03:54:21;;;;;;;4.35;1.90;;;;;;;12.04;100.00;101869.47;5036519;28;20017;-70
2022/07/04 03:56:47;;;;;;;2.05;1.42;;;;;;;12.09;100.00;101877.00;5031257;28;20437;-69
2022/07/04 03:59:12;;;;;;;2.50;1.38;;;;;;;12.14;100.00;101874.78;5037236;28;20029;-69
2022/07/04 04:01:38;;;;;;;3.67;1.92;;;;;;;12.15;100.00;101879.13;5041543;28;20396;-68
2022/07/04 04:06:47;;;;;;;3.15;1.38;;;;;;;12.14;100.00;101872.97;5030718;28;20056;-68
2022/07/04 04:09:16;;;;;;;2.63;1.98;;;;;;;12.03;100.00;101845.78;5038059;28;20427;-68
2022/07/04 04:11:42;;;;;;;2.58;2.00;;;;;;;12.13;100.00;101862.53;5010550;28;20034;-68
2022/07/04 04:14:07;;;;;;;1.95;1.50;;;;;;;12.11;100.00;101854.72;5031777;28;20496;-68
2022/07/04 04:16:33;;;;;;;2.63;1.98;;;;;;;12.11;100.00;101853.91;5032175;28;20013;-68
2022/07/04 04:18:59;;;;;;;2.65;1.63;;;;;;;12.18;100.00;101851.56;5035044;28;20109;-68
2022/07/04 04:21:24;;;;;;;2.38;1.85;;;;;;;12.25;100.00;101850.84;5030537;28;20021;-68
2022/07/04 04:23:50;;;;;;;2.13;1.77;;;;;;;12.34;100.00;101855.31;5031257;28;20517;-68
2022/07/04 04:26:15;;;;;;;4.70;1.60;;;;;;;12.38;100.00;101855.91;5030161;28;20029;-68
2022/07/04 04:28:41;;;;;;;2.75;2.08;;;;;;;12.42;100.00;101859.13;5031008;28;20025;-68
2022/07/04 04:31:06;;;;;;;4.40;2.17;;;;;;;12.42;100.00;101853.81;5027994;28;20409;-68
2022/07/04 04:33:31;;;;;;;3.60;2.05;;;;;;;12.50;100.00;101862.75;5027175;28;20491;-68
2022/07/04 04:35:57;;;;;;;2.75;1.75;;;;;;;12.56;100.00;101864.00;5028509;28;20112;-68
2022/07/04 04:38:23;;;;;;;2.90;1.85;;;;;;;12.66;100.00;101861.38;5027829;28;20040;-68
2022/07/04 04:40:48;;;;;;;2.33;2.03;;;;;;;12.60;100.00;101848.69;5019132;28;20280;-68
2022/07/04 04:43:13;;;;;;;4.35;1.85;;;;;;;12.80;100.00;101876.00;5032640;28;20029;-68
2022/07/04 04:45:39;;;;;;;4.68;2.30;;;;;;;12.72;100.00;101852.88;5035266;28;20532;-68
2022/07/04 04:48:05;;;;;;;2.80;2.28;;;;;;;12.90;100.00;101882.13;5020675;28;20025;-68
2022/07/04 04:50:30;;;;;;;3.90;3.40;;;;;;;12.95;100.00;101874.59;5032611;28;20052;-68
2022/07/04 04:52:57;;;;;;;5.47;2.83;;;;;;;12.98;100.00;101876.97;5031631;28;20125;-68
2022/07/04 04:55:22;;;;;;;2.72;2.20;;;;;;;12.99;100.00;101873.34;5033912;28;20484;-68
2022/07/04 04:57:48;;;;;;;5.82;2.00;;;;;;;13.14;100.00;101887.84;5033293;28;20014;-68
2022/07/04 05:00:14;;;;;;;2.97;1.95;;;;;;;13.32;100.00;101892.44;5021523;28;20059;-68
2022/07/04 05:02:39;;;;;;;4.00;2.40;;;;;;;13.30;100.00;101868.72;5029612;28;20037;-68
2022/07/04 05:05:06;;;;;;;4.65;2.60;;;;;;;13.61;100.00;101887.09;5026492;28;20033;-68
2022/07/04 05:07:31;;;;;;;8.80;1.95;;;;;;;13.70;100.00;101880.91;5034113;28;20116;-68
2022/07/04 05:09:59;;;;;;;7.50;2.85;;;;;;;13.70;100.00;101880.06;5029126;28;20025;-68
2022/07/04 05:12:25;;;;;;;3.70;2.95;;;;;;;13.85;100.00;101872.44;5036188;28;20401;-68
2022/07/04 05:14:51;;;;;;;3.83;2.83;;;;;;;13.88;100.00;101865.03;5032811;28;20097;-67
2022/07/04 05:17:16;;;;;;;5.57;2.60;;;;;;;14.11;100.00;101878.78;5026852;28;20025;-67
2022/07/04 05:19:42;;;;;;;7.72;3.10;;;;;;;14.29;100.00;101877.97;5033089;28;20626;-67
2022/07/04 05:22:07;;;;;;;4.88;2.60;;;;;;;14.42;100.00;101878.44;5041460;28;20404;-67
2022/07/04 05:24:32;;;;;;;2.53;1.75;;;;;;;14.61;100.00;101880.13;5034118;28;20404;-67
2022/07/04 05:26:58;;;;;;;2.42;1.80;;;;;;;14.67;100.00;101884.84;5035479;28;20430;-67
2022/07/04 05:29:23;;;;;;;2.33;1.65;;;;;;;14.73;100.00;101886.09;5032031;28;20036;-67
2022/07/04 05:31:48;;;;;;;4.13;2.05;;;;;;;14.91;100.00;101892.22;5034528;28;20029;-67
2022/07/04 05:34:14;;;;;;;2.15;1.48;;;;;;;15.08;100.00;101885.22;5033214;28;20446;-67
2022/07/04 05:36:39;;;;;;;3.53;1.92;;;;;;;15.34;100.00;101893.22;5034089;28;20477;-67
2022/07/04 05:39:04;;;;;;;1.92;1.02;;;;;;;15.66;100.00;101890.91;5030175;28;20037;-67
2022/07/04 05:41:30;;;;;;;1.77;1.58;;;;;;;15.74;100.00;101888.34;5035244;28;20025;-67
2022/07/04 05:43:55;;;;;;;2.90;1.38;;;;;;;15.60;100.00;101881.75;5034534;28;20104;-67
2022/07/04 05:46:21;;;;;;;3.67;1.48;;;;;;;15.63;100.00;101890.25;5029374;28;20029;-67
2022/07/04 05:48:46;;;;;;;4.40;1.50;;;;;;;15.70;100.00;101886.94;5037107;28;20040;-68
2022/07/04 05:51:11;;;;;;;5.18;1.50;;;;;;;15.64;100.00;101891.91;5033794;28;20371;-68
2022/07/04 05:53:37;;;;;;;2.22;1.13;;;;;;;15.56;100.00;101889.19;5032451;28;20469;-68
2022/07/04 05:56:02;;;;;;;1.80;1.20;;;;;;;15.55;100.00;101897.38;5020922;28;20033;-68
2022/07/04 05:58:28;;;;;;;3.78;1.58;;;;;;;15.69;100.00;101893.28;5034267;28;20068;-68
2022/07/04 06:00:53;;;;;;;1.90;1.23;;;;;;;15.74;100.00;101902.50;5029702;28;20064;-68
2022/07/04 06:03:19;;;;;;;2.30;0.95;;;;;;;16.02;100.00;101897.78;5040310;28;20487;-68
2022/07/04 06:05:44;;;;;;;3.08;1.75;;;;;;;16.20;100.00;101894.19;5035400;28;20033;-68
2022/07/04 06:08:10;;;;;;;1.73;1.27;;;;;;;16.38;100.00;101902.91;5041358;28;20124;-68
2022/07/04 06:10:35;;;;;;;2.28;1.00;;;;;;;16.40;98.80;101894.75;5032509;28;20033;-68
2022/07/04 06:13:01;;;;;;;1.05;0.93;;;;;;;16.20;99.54;101899.50;5037050;28;20569;-68
2022/07/04 06:15:26;;;;;;;2.15;1.35;;;;;;;16.13;99.29;101901.16;5037402;28;20037;-68
2022/07/04 06:17:52;;;;;;;2.97;1.00;;;;;;;16.08;99.94;101898.97;5041401;28;20032;-68
2022/07/04 06:20:17;;;;;;;1.65;1.02;;;;;;;16.10;100.00;101894.31;5025554;28;20044;-68
2022/07/04 06:22:45;;;;;;;2.28;1.27;;;;;;;16.30;100.00;101900.22;5037146;28;20025;-68
2022/07/04 06:25:15;;;;;;;4.22;3.00;;;;;;;16.58;98.81;101897.28;5040133;28;20107;-68
2022/07/04 06:27:42;;;;;;;3.83;1.50;;;;;;;16.47;98.47;101900.28;5036495;28;20433;-68
2022/07/04 06:30:08;;;;;;;2.70;1.25;;;;;;;16.80;99.46;101909.19;5037124;28;20033;-68
2022/07/04 06:32:50;;;;;;;1.50;1.20;;;;;;;17.00;95.61;101909.69;5037220;28;20528;-68
2022/07/04 06:35:45;;;;;;;2.83;1.52;;;;;;;17.32;95.02;101905.34;5039500;28;20033;-68
2022/07/04 06:38:19;;;;;;;2.55;1.02;;;;;;;17.60;94.77;101897.78;5033933;28;20047;-68
2022/07/04 06:40:45;;;;;;;6.60;1.80;;;;;;;18.39;90.83;101893.31;5041405;28;20029;-68
2022/07/04 06:43:11;;;;;;;3.13;0.90;;;;;;;18.76;87.31;101904.28;5037401;28;20052;-68
2022/07/04 06:45:37;;;;;;;4.93;1.15;;;;;;;19.18;85.79;101909.13;5036862;28;20039;-69
2022/07/04 06:48:06;;;;;;;4.47;1.10;;;;;;;19.59;82.91;101910.59;5042671;28;20112;-68
2022/07/04 06:50:32;;;;;;;4.90;1.92;;;;;;;20.10;81.46;101891.94;5038298;28;20065;-68
2022/07/04 06:53:02;;;;;;;1.77;0.98;;;;;;;20.21;80.10;101902.19;5036556;28;20022;-68
2022/07/04 06:55:28;;;;;;;2.08;1.02;;;;;;;20.53;78.98;101894.69;5036993;28;20035;-68
2022/07/04 06:57:53;;;;;;;2.78;1.00;;;;;;;20.82;77.79;101896.44;5034688;28;20029;-68
2022/07/04 07:00:18;;;;;;;3.00;1.20;;;;;;;21.10;76.54;101907.22;5037122;28;20513;-68
2022/07/04 07:02:44;;;;;;;0.93;0.60;;;;;;;21.46;76.42;101902.75;5034922;28;20486;-68
2022/07/04 07:05:09;;;;;;;6.25;1.02;;;;;;;21.58;74.55;101901.19;5035323;28;20044;-68
2022/07/04 07:07:35;;;;;;;1.55;0.90;;;;;;;21.01;74.96;101899.50;5036013;28;20495;-70
2022/07/04 07:10:02;;;;;;;1.58;0.80;;;;;;;21.04;77.11;101899.13;5037759;28;20025;-69
2022/07/04 07:12:28;;;;;;;1.80;1.08;;;;;;;21.28;75.01;101896.00;5034358;28;20420;-68
2022/07/04 07:14:54;;;;;;;2.08;0.93;;;;;;;21.52;75.80;101901.97;5038401;28;20021;-68
2022/07/04 07:17:20;;;;;;;3.10;1.77;;;;;;;21.69;72.79;101895.25;5037447;28;20033;-69
2022/07/04 07:19:45;;;;;;;1.42;0.70;;;;;;;22.01;73.96;101900.16;5033958;28;20039;-69
2022/07/04 07:22:12;;;;;;;0.82;0.70;;;;;;;22.51;72.08;101895.38;5035455;28;20052;-69
2022/07/04 07:24:38;;;;;;;1.98;0.65;;;;;;;22.92;70.12;101903.28;5034133;28;20058;-68
2022/07/04 07:27:04;;;;;;;1.95;0.93;;;;;;;22.43;69.15;101909.88;5037108;28;20037;-68
2022/07/04 07:29:30;;;;;;;2.35;0.77;;;;;;;22.12;68.59;101904.94;5037903;28;20068;-69
2022/07/04 07:31:55;;;;;;;2.13;0.80;;;;;;;21.77;71.17;101905.84;5036805;28;20178;-68
2022/07/04 07:34:20;;;;;;;1.05;0.65;;;;;;;21.95;71.90;101896.44;5041610;28;20040;-68
2022/07/04 07:36:46;;;;;;;1.85;0.52;;;;;;;22.06;71.06;101903.06;5038214;28;20485;-68
2022/07/04 07:39:12;;;;;;;4.47;0.50;;;;;;;21.68;71.77;101898.13;5039553;28;20057;-68
2022/07/04 07:41:37;;;;;;;2.42;1.05;;;;;;;21.85;72.22;101901.34;5032751;28;20052;-68
2022/07/04 07:44:03;;;;;;;2.58;1.15;;;;;;;21.97;70.31;101905.09;5034588;28;20044;-69
2022/07/04 07:46:28;;;;;;;0.90;0.70;;;;;;;21.75;71.63;101907.06;5032157;28;20075;-69
2022/07/04 07:48:53;;;;;;;0.75;0.60;;;;;;;21.51;71.54;101903.84;5037399;28;20031;-69
2022/07/04 07:51:19;;;;;;;1.45;0.50;;;;;;;21.23;72.05;101909.19;5034198;28;20414;-69
2022/07/04 07:53:44;;;;;;;0.70;0.40;;;;;;;21.27;74.00;101896.19;5036874;28;20017;-69
2022/07/04 07:56:09;;;;;;;1.30;0.55;;;;;;;21.28;73.97;101901.38;5032542;28;20029;-69
2022/07/04 07:58:35;;;;;;;1.35;0.70;;;;;;;21.26;73.76;101906.09;5040494;28;20029;-69
2022/07/04 08:01:03;;;;;;;1.67;1.13;;;;;;;21.13;73.25;101906.00;5035670;28;20083;-69
2022/07/04 08:06:14;;;;;;;1.52;0.60;;;;;;;21.02;75.17;101901.16;5036582;28;20490;-69
2022/07/04 08:08:43;;;;;;;1.10;0.45;;;;;;;20.92;74.83;101894.25;5034290;28;20091;-68
2022/07/04 08:11:10;;;;;;;1.30;0.60;;;;;;;20.82;75.29;101892.91;5034724;28;20173;-68
2022/07/04 08:13:35;;;;;;;3.30;0.55;;;;;;;20.95;75.87;101890.38;5033932;28;20029;-68
2022/07/04 08:16:01;;;;;;;1.80;0.65;;;;;;;21.08;75.83;101892.34;5034340;28;20035;-69
2022/07/04 08:18:26;;;;;;;1.60;1.20;;;;;;;20.75;76.22;101884.81;5032493;28;20013;-69
2022/07/04 08:20:52;;;;;;;4.57;0.93;;;;;;;20.51;77.09;101892.22;5033280;28;20525;-69
2022/07/04 08:23:17;;;;;;;2.78;0.60;;;;;;;20.29;77.86;101879.78;5037547;28;20257;-69
2022/07/04 08:25:42;;;;;;;2.05;0.98;;;;;;;20.14;78.09;101888.69;5022351;28;20030;-69
2022/07/04 08:28:08;;;;;;;1.30;0.90;;;;;;;20.04;78.64;101896.19;5032454;28;20029;-69
2022/07/04 08:30:34;;;;;;;0.95;0.55;;;;;;;20.10;79.77;101892.78;5031066;28;20572;-69
2022/07/04 08:32:59;;;;;;;2.08;0.80;;;;;;;20.14;78.14;101894.06;5038524;28;20028;-69
2022/07/04 08:35:25;;;;;;;1.90;0.60;;;;;;;20.04;79.22;101898.88;5031904;28;20029;-69
2022/07/04 08:37:53;;;;;;;1.73;0.70;;;;;;;20.19;77.23;101898.03;5031920;28;20034;-69
2022/07/04 08:40:21;;;;;;;2.08;0.40;;;;;;;20.33;75.68;101899.81;5033267;28;20116;-68
2022/07/04 08:42:46;;;;;;;1.10;0.60;;;;;;;20.45;74.50;101897.50;5037452;28;20099;-68
2022/07/04 08:45:15;;;;;;;0.98;0.65;;;;;;;20.59;75.33;101898.50;5031901;28;21023;-68
2022/07/04 08:47:42;;;;;;;1.02;0.55;;;;;;;20.70;74.99;101903.34;5033110;28;20036;-68
2022/07/04 08:50:29;;;;;;;3.13;0.70;;;;;;;20.89;75.14;101907.25;5031981;28;20144;-68
2022/07/04 08:52:59;;;;;;;3.13;0.73;;;;;;;20.82;76.40;101904.50;5033378;28;20033;-69
2022/07/04 09:00:54;;;;;;;1.52;0.52;;;;;;;20.54;73.32;101904.41;5039153;28;20047;-69
2022/07/04 09:03:21;;;;;;;1.77;0.60;;;;;;;21.27;71.77;101912.28;5040418;28;20078;-68
2022/07/04 09:05:46;;;;;;;1.73;0.77;;;;;;;21.54;70.06;101907.97;5041415;28;20033;-68
2022/07/04 09:08:12;;;;;;;1.42;0.30;;;;;;;22.36;69.81;101904.47;5036471;28;20068;-72
2022/07/04 09:10:38;;;;;;;2.58;0.82;;;;;;;23.99;60.74;101900.47;5037331;28;20032;-72
2022/07/04 09:13:05;;;;;;;1.98;0.50;;;;;;;24.37;61.10;101905.06;5032368;28;20033;-72
2022/07/04 09:15:31;;;;;;;0.88;0.20;;;;;;;25.41;55.88;101906.41;5035533;28;20038;-72
2022/07/04 09:17:58;;;;;;;2.08;0.45;;;;;;;24.79;56.20;101905.44;5037274;28;20233;-72
2022/07/04 09:20:25;;;;;;;1.67;0.40;;;;;;;24.33;56.28;101910.06;5037854;28;20045;-72
2022/07/04 09:22:52;;;;;;;1.65;0.50;;;;;;;23.72;58.47;101907.81;5039688;28;20477;-72
2022/07/04 09:25:17;;;;;;;0.73;0.40;;;;;;;22.96;59.62;101901.84;5039827;28;20637;-72
2022/07/04 09:27:47;;;;;;;1.48;0.40;;;;;;;24.51;59.38;101903.97;5034744;28;20029;-72
2022/07/04 09:30:14;;;;;;;1.70;0.50;;;;;;;26.55;56.72;101905.84;5036841;28;20030;-72
2022/07/04 09:32:45;;;;;;;0.30;0.20;;;;;;;26.65;51.70;101903.44;5035853;28;20041;-72
2022/07/04 09:35:11;;;;;;;;;;;;;;;27.18;52.32;101909.03;5037247;28;20056;-72
2022/07/04 09:37:46;;;;;;;0.75;0.38;;;;;;;27.78;50.56;101897.88;5038706;28;20292;-72
2022/07/04 09:40:31;;;;;;;1.90;0.43;;;;;;;29.10;48.88;101890.53;5037041;28;20104;-72
2022/07/04 09:42:59;;;;;;;0.93;0.40;;;;;;;29.80;48.87;101903.75;5038015;28;20492;-72
2022/07/04 09:45:25;;;;;;;0.47;0.47;;;;;;;29.97;47.53;101917.28;5039436;28;20052;-72
2022/07/04 09:47:59;;;;;;;2.03;0.30;;;;;;;30.09;47.77;101915.22;5037370;28;20044;-72
2022/07/04 09:50:26;;;;;;;0.90;0.40;;;;;;;29.99;47.93;101926.84;5041043;28;20041;-72
2022/07/04 09:52:55;;;;;;;1.23;0.20;;;;;;;30.69;45.97;101907.94;5033557;28;20489;-72
2022/07/04 09:55:31;;;;;;;1.38;0.40;;;;;;;30.86;43.99;101924.22;5034660;28;20022;-72
2022/07/04 09:58:02;;;;;;;1.23;0.20;;;;;;;31.23;44.66;101918.75;5034205;28;20025;-72
2022/07/04 10:00:44;;;;;;;2.85;0.30;;;;;;;31.23;45.39;101912.44;5032242;28;20014;-72
2022/07/04 10:03:28;;;;;;;0.40;0.20;;;;;;;32.21;43.81;101920.03;5033883;28;20037;-73
2022/07/04 10:06:05;;;;;;;2.85;0.45;;;;;;;32.70;43.96;101922.28;5033392;28;20124;-72
2022/07/04 10:08:31;;;;;;;3.70;0.20;;;;;;;32.86;42.39;101916.78;5038673;28;20032;-72
2022/07/04 10:11:02;;;;;;;1.58;0.32;;;;;;;32.65;42.75;101916.00;5039461;28;20124;-72
2022/07/04 10:13:27;;;;;;;0.68;0.30;;;;;;;32.32;41.43;101909.94;5039175;28;20036;-72
2022/07/04 10:15:53;;;;;;;0.60;0.20;;;;;;;31.90;43.80;101906.25;5033240;28;20021;-72
2022/07/04 10:18:21;;;;;;;1.27;0.15;;;;;;;31.36;42.98;101917.44;5038715;28;20316;-72
2022/07/04 10:20:48;;;;;;;1.73;0.40;;;;;;;31.26;44.81;101903.75;5033507;28;20456;-72
2022/07/04 10:23:14;;;;;;;1.10;0.45;;;;;;;31.46;43.28;101922.16;5016268;28;20041;-72
2022/07/04 10:25:41;;;;;;;1.83;0.60;;;;;;;29.84;45.26;101902.97;5040122;28;20032;-72
2022/07/04 10:28:07;;;;;;;0.90;0.43;;;;;;;29.38;46.65;101910.53;5034971;28;20029;-72
2022/07/04 10:30:35;;;;;;;0.60;0.40;;;;;;;28.02;46.37;101916.84;5034971;28;20029;-72
2022/07/04 10:33:04;;;;;;;1.17;0.50;;;;;;;27.33;48.26;101917.53;5037664;28;20071;-72
2022/07/04 10:35:49;;;;;;;1.33;0.55;;;;;;;28.90;47.81;101914.66;5033875;28;20624;-72
2022/07/04 10:38:17;;;;;;;0.68;0.32;;;;;;;29.85;45.59;101909.25;5036900;28;20151;-72
2022/07/04 10:40:48;;;;;;;1.10;0.40;;;;;;;30.52;46.20;101908.06;5031572;28;20028;-72
2022/07/04 10:43:40;;;;;;;1.77;0.57;;;;;;;31.78;43.73;101903.75;5032889;28;20029;-72
2022/07/04 10:46:15;;;;;;;3.95;0.50;;;;;;;32.44;43.07;101915.13;5033632;28;20083;-72
2022/07/04 10:49:02;;;;;;;0.80;0.32;;;;;;;31.99;42.38;101906.59;5038453;28;20449;-72
2022/07/04 10:51:48;;;;;;;2.35;0.57;;;;;;;31.87;41.92;101903.25;4999375;28;1094174;-72
2022/07/04 10:54:15;;;;;;;1.42;0.40;;;;;;;31.19;45.23;101909.44;5034081;28;20120;-72
2022/07/04 10:56:42;;;;;;;0.63;0.32;;;;;;;31.45;43.10;101910.44;5034280;28;20021;-72
2022/07/04 10:59:09;;;;;;;0.57;0.30;;;;;;;31.86;42.56;101904.31;5036013;28;20029;-72
2022/07/04 11:01:35;;;;;;;0.90;0.40;;;;;;;31.51;43.69;101903.91;5032810;28;20025;-72
2022/07/04 11:04:01;;;;;;;1.25;0.30;;;;;;;31.23;45.42;101901.53;5028094;28;20493;-72
2022/07/04 11:06:32;;;;;;;1.08;0.57;;;;;;;31.47;44.32;101897.34;5033171;28;20032;-71
2022/07/04 11:09:30;;;;;;;1.25;0.43;;;;;;;31.36;43.48;101901.91;5034721;28;20053;-72
2022/07/04 11:12:06;;;;;;;3.92;0.40;;;;;;;30.90;45.54;101904.34;5006521;28;20073;-72
2022/07/04 11:14:47;;;;;;;1.80;0.60;;;;;;;30.90;45.48;101915.25;5006056;28;20096;-71
2022/07/04 11:17:33;;;;;;;0.73;0.35;;;;;;;30.15;45.74;101903.31;5004133;28;20049;-71
2022/07/04 11:20:00;;;;;;;1.55;0.40;;;;;;;29.93;47.68;101900.63;5004529;28;20037;-72
2022/07/04 11:22:26;;;;;;;0.57;0.30;;;;;;;31.07;46.07;101887.81;5002001;28;20046;-72
2022/07/04 11:24:52;;;;;;;0.40;0.20;;;;;;;31.02;43.77;101904.13;4984481;28;20045;-72
2022/07/04 11:27:20;;;;;;;1.75;0.50;;;;;;;29.88;44.79;101895.97;5003442;28;20030;-72
2022/07/04 11:29:52;;;;;;;0.77;0.40;;;;;;;29.05;47.34;101903.19;5006786;28;20113;-72
2022/07/04 11:32:18;;;;;;;1.17;0.38;;;;;;;28.90;47.31;101890.22;5005810;28;20121;-72
2022/07/04 11:34:44;;;;;;;1.27;0.47;;;;;;;29.78;45.14;101875.97;5006058;28;20465;-72
2022/07/04 11:37:09;;;;;;;1.05;0.47;;;;;;;29.82;44.55;101888.00;5002703;28;20037;-72